ポンタ・デルガダ の空港の天気 - METARとTAF

ポンタ・デルガダ空港 ( LPPD / PDL ) - ポルトガル ポンタ・デルガダ (サンミゲル島)
飛行場実況気象(Metar)
観測時間06/29 01:30 AZOST (06/29 01:30 UTC)
風向・風速北東 2m/s
視程10km以上
天気現象
少しの雲 雲底高度 610m
気温18℃
湿度73%
気圧1030hPa
METARLPPD 290130Z 05004KT 360V110 9999 FEW020 18/13 Q1030
過去の天気等 Google飛行場航空写真 Wunderground天気予報

過去48時間のMETAR

飛行場予報(TAF)
発表時間: 6/28 23:00 AZOST (6/28 23:00 UTC)
予報対象時間: 29日0時 AZOST ~ 30日0時 AZOST
風向・風速北東 4m/s
視程10km以上
少しの雲 雲底高度 610m
29日0時 AZOST ~ 29日24時 AZOST に一時的に
全天の4割程度の雲 雲底高度 550m
全天の8割程度の雲 雲底高度 1,070m
29日0時 AZOST ~ 29日6時 AZOST に 確率 30% で一時的に
全天の8割程度の雲 雲底高度 240m
29日14時 AZOST ~ 29日20時 AZOST に一時的に
風向・風速不定 3m/s
TAF LPPD 282300Z 2900/2924 04008KT 9999 FEW020
TEMPO 2900/2924 SCT018 BKN035
PROB30 TEMPO 2900/2906 BKN008
TEMPO 2914/2920 VRB05KT